sensor_id;sensor_type;location;lat;lon;timestamp;pressure;altitude;pressure_sealevel;temperature;humidity
44765;BME280;30484;52.382;5.260;2023-05-08T00:01:37;102219.78;;;18.11;100.00
44765;BME280;30484;52.382;5.260;2023-05-08T00:04:09;102221.81;;;18.07;100.00
44765;BME280;30484;52.382;5.260;2023-05-08T00:06:40;102229.69;;;17.96;100.00
44765;BME280;30484;52.382;5.260;2023-05-08T00:09:13;102226.88;;;17.98;100.00
44765;BME280;30484;52.382;5.260;2023-05-08T00:11:48;102218.59;;;18.01;100.00
44765;BME280;30484;52.382;5.260;2023-05-08T00:14:19;102206.91;;;18.00;100.00
44765;BME280;30484;52.382;5.260;2023-05-08T00:16:54;102204.56;;;17.94;100.00
44765;BME280;30484;52.382;5.260;2023-05-08T00:19:26;102211.06;;;17.90;100.00
44765;BME280;30484;52.382;5.260;2023-05-08T00:21:58;102210.22;;;17.89;100.00
44765;BME280;30484;52.382;5.260;2023-05-08T00:24:34;102214.94;;;17.86;100.00
44765;BME280;30484;52.382;5.260;2023-05-08T00:27:04;102215.09;;;17.83;100.00
44765;BME280;30484;52.382;5.260;2023-05-08T00:29:36;102221.69;;;17.79;100.00
44765;BME280;30484;52.382;5.260;2023-05-08T00:32:07;102217.22;;;17.77;100.00
44765;BME280;30484;52.382;5.260;2023-05-08T00:34:37;102213.47;;;17.80;100.00
44765;BME280;30484;52.382;5.260;2023-05-08T00:37:12;102214.09;;;17.69;100.00
44765;BME280;30484;52.382;5.260;2023-05-08T00:39:50;102212.25;;;17.70;100.00
44765;BME280;30484;52.382;5.260;2023-05-08T00:42:23;102205.22;;;17.67;100.00
44765;BME280;30484;52.382;5.260;2023-05-08T00:44:56;102203.47;;;17.66;100.00
44765;BME280;30484;52.382;5.260;2023-05-08T00:47:27;102215.31;;;17.64;100.00
44765;BME280;30484;52.382;5.260;2023-05-08T00:49:57;102208.53;;;17.56;100.00
44765;BME280;30484;52.382;5.260;2023-05-08T00:52:31;102205.94;;;17.55;100.00
44765;BME280;30484;52.382;5.260;2023-05-08T00:55:07;102211.44;;;17.53;100.00
44765;BME280;30484;52.382;5.260;2023-05-08T00:57:40;102206.97;;;17.52;100.00
44765;BME280;30484;52.382;5.260;2023-05-08T01:00:14;102218.81;;;17.50;100.00
44765;BME280;30484;52.382;5.260;2023-05-08T01:02:53;102215.34;;;17.48;100.00
44765;BME280;30484;52.382;5.260;2023-05-08T01:05:24;102212.94;;;17.43;100.00
44765;BME280;30484;52.382;5.260;2023-05-08T01:07:56;102215.00;;;17.38;100.00
44765;BME280;30484;52.382;5.260;2023-05-08T01:10:37;102214.16;;;17.37;100.00
44765;BME280;30484;52.382;5.260;2023-05-08T01:13:19;102221.09;;;17.25;100.00
44765;BME280;30484;52.382;5.260;2023-05-08T01:16:00;102233.91;;;17.22;100.00
44765;BME280;30484;52.382;5.260;2023-05-08T01:18:49;102232.72;;;17.28;100.00
44765;BME280;30484;52.382;5.260;2023-05-08T01:21:33;102240.38;;;17.19;100.00
44765;BME280;30484;52.382;5.260;2023-05-08T01:24:41;102240.28;;;17.21;100.00
44765;BME280;30484;52.382;5.260;2023-05-08T01:28:05;102247.59;;;17.19;100.00
44765;BME280;30484;52.382;5.260;2023-05-08T01:31:00;102248.09;;;17.25;100.00
44765;BME280;30484;52.382;5.260;2023-05-08T01:33:50;102245.16;;;17.30;100.00
44765;BME280;30484;52.382;5.260;2023-05-08T01:36:35;102246.72;;;17.34;100.00
44765;BME280;30484;52.382;5.260;2023-05-08T01:39:16;102246.22;;;17.28;100.00
44765;BME280;30484;52.382;5.260;2023-05-08T01:41:59;102242.34;;;17.16;100.00
44765;BME280;30484;52.382;5.260;2023-05-08T01:44:35;102248.63;;;17.16;100.00
44765;BME280;30484;52.382;5.260;2023-05-08T01:47:12;102244.09;;;17.17;100.00
44765;BME280;30484;52.382;5.260;2023-05-08T01:49:48;102238.78;;;17.15;100.00
44765;BME280;30484;52.382;5.260;2023-05-08T01:52:32;102238.16;;;17.10;100.00
44765;BME280;30484;52.382;5.260;2023-05-08T01:55:08;102248.28;;;17.06;100.00
44765;BME280;30484;52.382;5.260;2023-05-08T01:57:45;102247.31;;;17.07;100.00
44765;BME280;30484;52.382;5.260;2023-05-08T02:00:19;102236.66;;;17.04;100.00
44765;BME280;30484;52.382;5.260;2023-05-08T02:02:51;102245.41;;;17.10;100.00
44765;BME280;30484;52.382;5.260;2023-05-08T02:05:29;102246.53;;;17.05;100.00
44765;BME280;30484;52.382;5.260;2023-05-08T02:08:05;102248.44;;;17.03;100.00
44765;BME280;30484;52.382;5.260;2023-05-08T02:10:39;102253.41;;;16.95;100.00
44765;BME280;30484;52.382;5.260;2023-05-08T02:13:13;102255.31;;;16.93;100.00
44765;BME280;30484;52.382;5.260;2023-05-08T02:15:47;102248.34;;;16.89;100.00
44765;BME280;30484;52.382;5.260;2023-05-08T02:18:22;102252.53;;;16.95;100.00
44765;BME280;30484;52.382;5.260;2023-05-08T02:21:01;102248.75;;;16.97;100.00
44765;BME280;30484;52.382;5.260;2023-05-08T02:23:57;102245.13;;;16.98;100.00
44765;BME280;30484;52.382;5.260;2023-05-08T02:26:33;102241.66;;;16.96;100.00
44765;BME280;30484;52.382;5.260;2023-05-08T02:29:06;102241.81;;;16.93;100.00
44765;BME280;30484;52.382;5.260;2023-05-08T02:31:38;102235.53;;;16.93;100.00
44765;BME280;30484;52.382;5.260;2023-05-08T02:34:12;102241.19;;;16.88;100.00
44765;BME280;30484;52.382;5.260;2023-05-08T02:36:48;102247.03;;;16.79;100.00
44765;BME280;30484;52.382;5.260;2023-05-08T02:39:25;102240.88;;;16.77;100.00
44765;BME280;30484;52.382;5.260;2023-05-08T02:42:01;102240.94;;;16.75;100.00
44765;BME280;30484;52.382;5.260;2023-05-08T02:44:33;102232.94;;;16.73;100.00
44765;BME280;30484;52.382;5.260;2023-05-08T02:47:16;102243.09;;;16.68;100.00
44765;BME280;30484;52.382;5.260;2023-05-08T02:49:53;102238.44;;;16.72;100.00
44765;BME280;30484;52.382;5.260;2023-05-08T02:52:29;102221.25;;;16.73;100.00
44765;BME280;30484;52.382;5.260;2023-05-08T02:55:18;102224.28;;;16.67;100.00
44765;BME280;30484;52.382;5.260;2023-05-08T02:58:03;102224.56;;;16.62;100.00
44765;BME280;30484;52.382;5.260;2023-05-08T03:00:51;102227.03;;;16.49;100.00
44765;BME280;30484;52.382;5.260;2023-05-08T03:03:36;102235.03;;;16.51;100.00
44765;BME280;30484;52.382;5.260;2023-05-08T03:06:12;102215.22;;;16.52;100.00
44765;BME280;30484;52.382;5.260;2023-05-08T03:08:49;102213.56;;;16.49;100.00
44765;BME280;30484;52.382;5.260;2023-05-08T03:11:27;102208.72;;;16.56;100.00
44765;BME280;30484;52.382;5.260;2023-05-08T03:14:03;102209.75;;;16.53;100.00
44765;BME280;30484;52.382;5.260;2023-05-08T03:16:40;102209.66;;;16.55;100.00
44765;BME280;30484;52.382;5.260;2023-05-08T03:19:15;102204.72;;;16.46;100.00
44765;BME280;30484;52.382;5.260;2023-05-08T03:21:52;102216.00;;;16.54;100.00
44765;BME280;30484;52.382;5.260;2023-05-08T03:24:27;102201.47;;;16.56;100.00
44765;BME280;30484;52.382;5.260;2023-05-08T03:27:03;102219.41;;;16.58;100.00
44765;BME280;30484;52.382;5.260;2023-05-08T03:29:41;102233.38;;;16.48;100.00
44765;BME280;30484;52.382;5.260;2023-05-08T03:32:13;102242.84;;;16.39;100.00
44765;BME280;30484;52.382;5.260;2023-05-08T03:34:47;102236.47;;;16.23;100.00
44765;BME280;30484;52.382;5.260;2023-05-08T03:37:20;102246.31;;;16.42;100.00
44765;BME280;30484;52.382;5.260;2023-05-08T03:39:55;102255.47;;;16.39;100.00
44765;BME280;30484;52.382;5.260;2023-05-08T03:42:30;102250.28;;;16.17;100.00
44765;BME280;30484;52.382;5.260;2023-05-08T03:45:04;102247.28;;;16.23;100.00
44765;BME280;30484;52.382;5.260;2023-05-08T03:47:37;102254.25;;;16.27;100.00
44765;BME280;30484;52.382;5.260;2023-05-08T03:50:15;102254.25;;;16.27;100.00
44765;BME280;30484;52.382;5.260;2023-05-08T03:52:53;102244.50;;;16.07;100.00
44765;BME280;30484;52.382;5.260;2023-05-08T03:55:31;102243.31;;;15.95;100.00
44765;BME280;30484;52.382;5.260;2023-05-08T03:58:20;102248.22;;;16.39;100.00
44765;BME280;30484;52.382;5.260;2023-05-08T04:01:04;102237.91;;;16.30;100.00
44765;BME280;30484;52.382;5.260;2023-05-08T04:03:53;102242.06;;;16.37;100.00
44765;BME280;30484;52.382;5.260;2023-05-08T04:06:39;102243.31;;;16.48;100.00
44765;BME280;30484;52.382;5.260;2023-05-08T04:09:23;102242.66;;;16.43;100.00
44765;BME280;30484;52.382;5.260;2023-05-08T04:12:04;102243.78;;;16.38;100.00
44765;BME280;30484;52.382;5.260;2023-05-08T04:14:44;102246.69;;;16.51;100.00
44765;BME280;30484;52.382;5.260;2023-05-08T04:17:31;102249.66;;;16.47;100.00
44765;BME280;30484;52.382;5.260;2023-05-08T04:20:21;102250.91;;;16.57;100.00
44765;BME280;30484;52.382;5.260;2023-05-08T04:22:55;102259.81;;;16.59;100.00
44765;BME280;30484;52.382;5.260;2023-05-08T04:25:30;102245.34;;;16.60;100.00
44765;BME280;30484;52.382;5.260;2023-05-08T04:28:05;102256.13;;;16.60;100.00
44765;BME280;30484;52.382;5.260;2023-05-08T04:30:40;102246.44;;;16.73;100.00
44765;BME280;30484;52.382;5.260;2023-05-08T04:33:21;102257.19;;;16.58;100.00
44765;BME280;30484;52.382;5.260;2023-05-08T04:35:53;102253.47;;;16.43;100.00
44765;BME280;30484;52.382;5.260;2023-05-08T04:38:27;102257.63;;;16.66;100.00
44765;BME280;30484;52.382;5.260;2023-05-08T04:41:09;102254.00;;;16.49;100.00
44765;BME280;30484;52.382;5.260;2023-05-08T04:43:42;102256.00;;;16.63;100.00
44765;BME280;30484;52.382;5.260;2023-05-08T04:46:15;102249.19;;;16.38;100.00
44765;BME280;30484;52.382;5.260;2023-05-08T04:48:49;102263.91;;;16.49;100.00
44765;BME280;30484;52.382;5.260;2023-05-08T04:51:20;102269.16;;;16.34;100.00
44765;BME280;30484;52.382;5.260;2023-05-08T04:53:51;102265.69;;;16.32;100.00
44765;BME280;30484;52.382;5.260;2023-05-08T04:56:22;102269.31;;;16.49;100.00
44765;BME280;30484;52.382;5.260;2023-05-08T04:58:58;102278.38;;;16.48;100.00
44765;BME280;30484;52.382;5.260;2023-05-08T05:01:38;102272.50;;;16.39;100.00
44765;BME280;30484;52.382;5.260;2023-05-08T05:04:09;102272.41;;;16.06;100.00
44765;BME280;30484;52.382;5.260;2023-05-08T05:06:42;102281.78;;;16.51;100.00
44765;BME280;30484;52.382;5.260;2023-05-08T05:09:23;102276.78;;;16.09;100.00
44765;BME280;30484;52.382;5.260;2023-05-08T05:11:57;102279.66;;;16.41;100.00
44765;BME280;30484;52.382;5.260;2023-05-08T05:14:35;102286.78;;;16.59;100.00
44765;BME280;30484;52.382;5.260;2023-05-08T05:17:08;102282.81;;;16.66;100.00
44765;BME280;30484;52.382;5.260;2023-05-08T05:19:55;102285.81;;;16.78;100.00
44765;BME280;30484;52.382;5.260;2023-05-08T05:22:35;102290.00;;;16.83;100.00
44765;BME280;30484;52.382;5.260;2023-05-08T05:25:08;102295.66;;;16.96;100.00
44765;BME280;30484;52.382;5.260;2023-05-08T05:27:39;102294.16;;;16.90;100.00
44765;BME280;30484;52.382;5.260;2023-05-08T05:30:27;102291.31;;;17.10;100.00
44765;BME280;30484;52.382;5.260;2023-05-08T05:32:56;102300.50;;;17.23;100.00
44765;BME280;30484;52.382;5.260;2023-05-08T05:35:31;102293.31;;;17.06;100.00
44765;BME280;30484;52.382;5.260;2023-05-08T05:38:12;102298.66;;;17.39;100.00
44765;BME280;30484;52.382;5.260;2023-05-08T05:40:44;102304.69;;;16.95;100.00
44765;BME280;30484;52.382;5.260;2023-05-08T05:43:16;102305.94;;;17.21;100.00
44765;BME280;30484;52.382;5.260;2023-05-08T05:46:09;102301.00;;;17.30;100.00
44765;BME280;30484;52.382;5.260;2023-05-08T05:48:40;102312.75;;;17.29;100.00
44765;BME280;30484;52.382;5.260;2023-05-08T05:51:20;102310.50;;;17.53;100.00
44765;BME280;30484;52.382;5.260;2023-05-08T05:53:54;102307.31;;;17.62;100.00
44765;BME280;30484;52.382;5.260;2023-05-08T05:56:37;102303.03;;;17.58;100.00
44765;BME280;30484;52.382;5.260;2023-05-08T05:59:10;102309.66;;;17.52;100.00
44765;BME280;30484;52.382;5.260;2023-05-08T06:02:04;102314.97;;;17.86;100.00
44765;BME280;30484;52.382;5.260;2023-05-08T06:04:40;102308.59;;;17.87;100.00
44765;BME280;30484;52.382;5.260;2023-05-08T06:07:09;102315.94;;;18.01;100.00
44765;BME280;30484;52.382;5.260;2023-05-08T06:09:38;102315.31;;;17.96;100.00
44765;BME280;30484;52.382;5.260;2023-05-08T06:12:10;102315.13;;;17.83;100.00
44765;BME280;30484;52.382;5.260;2023-05-08T06:14:56;102318.91;;;17.80;100.00
44765;BME280;30484;52.382;5.260;2023-05-08T06:17:28;102320.97;;;18.23;100.00
44765;BME280;30484;52.382;5.260;2023-05-08T06:19:59;102320.22;;;18.35;100.00
44765;BME280;30484;52.382;5.260;2023-05-08T06:22:34;102329.28;;;18.04;100.00
44765;BME280;30484;52.382;5.260;2023-05-08T06:25:14;102325.63;;;18.05;100.00
44765;BME280;30484;52.382;5.260;2023-05-08T06:27:47;102324.31;;;18.42;100.00
44765;BME280;30484;52.382;5.260;2023-05-08T06:30:17;102316.38;;;18.09;100.00
44765;BME280;30484;52.382;5.260;2023-05-08T06:32:52;102319.38;;;18.35;100.00
44765;BME280;30484;52.382;5.260;2023-05-08T06:35:29;102330.06;;;18.06;100.00
44765;BME280;30484;52.382;5.260;2023-05-08T06:38:00;102322.59;;;18.41;100.00
44765;BME280;30484;52.382;5.260;2023-05-08T06:40:46;102314.56;;;18.40;100.00
44765;BME280;30484;52.382;5.260;2023-05-08T06:43:25;102314.19;;;18.16;100.00
44765;BME280;30484;52.382;5.260;2023-05-08T06:46:25;102316.34;;;18.25;100.00
44765;BME280;30484;52.382;5.260;2023-05-08T06:49:08;102326.56;;;17.88;100.00
44765;BME280;30484;52.382;5.260;2023-05-08T06:51:40;102327.38;;;18.06;100.00
44765;BME280;30484;52.382;5.260;2023-05-08T06:54:14;102337.03;;;18.26;100.00
44765;BME280;30484;52.382;5.260;2023-05-08T06:56:47;102328.38;;;18.50;100.00
44765;BME280;30484;52.382;5.260;2023-05-08T06:59:16;102324.25;;;18.28;100.00
44765;BME280;30484;52.382;5.260;2023-05-08T07:01:46;102325.00;;;18.46;100.00
44765;BME280;30484;52.382;5.260;2023-05-08T07:04:22;102316.38;;;18.39;100.00
44765;BME280;30484;52.382;5.260;2023-05-08T07:06:58;102317.66;;;18.18;100.00
44765;BME280;30484;52.382;5.260;2023-05-08T07:09:29;102321.53;;;17.98;100.00
44765;BME280;30484;52.382;5.260;2023-05-08T07:11:58;102327.22;;;17.93;100.00
44765;BME280;30484;52.382;5.260;2023-05-08T07:14:32;102323.59;;;18.08;100.00
44765;BME280;30484;52.382;5.260;2023-05-08T07:17:03;102319.06;;;18.39;100.00
44765;BME280;30484;52.382;5.260;2023-05-08T07:19:41;102311.34;;;18.33;100.00
44765;BME280;30484;52.382;5.260;2023-05-08T07:22:13;102303.28;;;18.62;100.00
44765;BME280;30484;52.382;5.260;2023-05-08T07:24:43;102307.34;;;18.55;100.00
44765;BME280;30484;52.382;5.260;2023-05-08T07:27:15;102309.56;;;18.62;100.00
44765;BME280;30484;52.382;5.260;2023-05-08T07:29:46;102309.97;;;18.26;100.00
44765;BME280;30484;52.382;5.260;2023-05-08T07:32:16;102308.53;;;18.79;100.00
44765;BME280;30484;52.382;5.260;2023-05-08T07:34:48;102311.00;;;18.54;100.00
44765;BME280;30484;52.382;5.260;2023-05-08T07:37:18;102302.19;;;19.09;100.00
44765;BME280;30484;52.382;5.260;2023-05-08T07:39:48;102304.91;;;19.38;100.00
44765;BME280;30484;52.382;5.260;2023-05-08T07:42:19;102299.81;;;19.46;100.00
44765;BME280;30484;52.382;5.260;2023-05-08T07:45:04;102298.00;;;19.89;100.00
44765;BME280;30484;52.382;5.260;2023-05-08T07:47:35;102297.16;;;19.88;100.00
44765;BME280;30484;52.382;5.260;2023-05-08T07:50:11;102304.31;;;19.33;100.00
44765;BME280;30484;52.382;5.260;2023-05-08T07:52:42;102300.25;;;19.26;100.00
44765;BME280;30484;52.382;5.260;2023-05-08T07:55:21;102303.00;;;19.95;100.00
44765;BME280;30484;52.382;5.260;2023-05-08T07:57:52;102288.16;;;20.41;100.00
44765;BME280;30484;52.382;5.260;2023-05-08T08:00:24;102294.66;;;20.78;100.00
44765;BME280;30484;52.382;5.260;2023-05-08T08:03:00;102290.84;;;20.68;100.00
44765;BME280;30484;52.382;5.260;2023-05-08T08:05:33;102289.97;;;20.67;100.00
44765;BME280;30484;52.382;5.260;2023-05-08T08:08:06;102283.56;;;20.68;100.00
44765;BME280;30484;52.382;5.260;2023-05-08T08:10:37;102280.25;;;20.50;100.00
44765;BME280;30484;52.382;5.260;2023-05-08T08:13:10;102288.22;;;20.66;100.00
44765;BME280;30484;52.382;5.260;2023-05-08T08:15:42;102284.13;;;20.46;100.00
44765;BME280;30484;52.382;5.260;2023-05-08T08:18:14;102286.22;;;20.56;100.00
44765;BME280;30484;52.382;5.260;2023-05-08T08:20:53;102285.41;;;20.68;100.00
44765;BME280;30484;52.382;5.260;2023-05-08T08:23:25;102286.72;;;20.75;100.00
44765;BME280;30484;52.382;5.260;2023-05-08T08:25:58;102288.66;;;20.99;100.00
44765;BME280;30484;52.382;5.260;2023-05-08T08:28:30;102276.91;;;21.48;100.00
44765;BME280;30484;52.382;5.260;2023-05-08T08:31:01;102277.53;;;21.15;100.00
44765;BME280;30484;52.382;5.260;2023-05-08T08:33:37;102277.56;;;20.89;100.00
44765;BME280;30484;52.382;5.260;2023-05-08T08:36:16;102279.38;;;20.50;100.00
44765;BME280;30484;52.382;5.260;2023-05-08T08:38:53;102282.78;;;21.18;100.00
44765;BME280;30484;52.382;5.260;2023-05-08T08:41:24;102269.72;;;21.10;100.00
44765;BME280;30484;52.382;5.260;2023-05-08T08:44:04;102264.06;;;21.13;100.00
44765;BME280;30484;52.382;5.260;2023-05-08T08:46:38;102256.75;;;21.27;100.00
44765;BME280;30484;52.382;5.260;2023-05-08T08:49:10;102269.53;;;21.37;100.00
44765;BME280;30484;52.382;5.260;2023-05-08T08:51:53;102272.69;;;21.44;100.00
44765;BME280;30484;52.382;5.260;2023-05-08T08:54:29;102280.06;;;21.18;100.00
44765;BME280;30484;52.382;5.260;2023-05-08T08:57:01;102283.41;;;21.21;100.00
44765;BME280;30484;52.382;5.260;2023-05-08T08:59:37;102272.66;;;22.05;100.00
44765;BME280;30484;52.382;5.260;2023-05-08T09:02:18;102263.78;;;21.79;100.00
44765;BME280;30484;52.382;5.260;2023-05-08T09:04:53;102279.25;;;21.29;100.00
44765;BME280;30484;52.382;5.260;2023-05-08T09:07:27;102271.25;;;21.88;100.00
44765;BME280;30484;52.382;5.260;2023-05-08T09:09:59;102270.66;;;21.96;100.00
44765;BME280;30484;52.382;5.260;2023-05-08T09:12:32;102273.41;;;21.72;100.00
44765;BME280;30484;52.382;5.260;2023-05-08T09:15:01;102269.59;;;21.62;100.00
44765;BME280;30484;52.382;5.260;2023-05-08T09:17:48;102270.13;;;22.15;100.00
44765;BME280;30484;52.382;5.260;2023-05-08T09:20:19;102271.97;;;22.15;100.00
44765;BME280;30484;52.382;5.260;2023-05-08T09:22:54;102267.34;;;22.04;100.00
44765;BME280;30484;52.382;5.260;2023-05-08T09:25:24;102266.38;;;22.05;100.00
44765;BME280;30484;52.382;5.260;2023-05-08T09:28:17;102270.31;;;21.52;100.00
44765;BME280;30484;52.382;5.260;2023-05-08T09:30:56;102271.94;;;21.79;100.00
44765;BME280;30484;52.382;5.260;2023-05-08T09:33:28;102277.44;;;22.15;100.00
44765;BME280;30484;52.382;5.260;2023-05-08T09:35:58;102265.31;;;22.66;100.00
44765;BME280;30484;52.382;5.260;2023-05-08T09:38:38;102261.22;;;22.24;100.00
44765;BME280;30484;52.382;5.260;2023-05-08T09:41:13;102260.06;;;22.40;100.00
44765;BME280;30484;52.382;5.260;2023-05-08T09:43:58;102252.47;;;22.79;100.00
44765;BME280;30484;52.382;5.260;2023-05-08T09:46:29;102264.09;;;23.04;100.00
44765;BME280;30484;52.382;5.260;2023-05-08T09:49:02;102254.69;;;22.97;100.00
44765;BME280;30484;52.382;5.260;2023-05-08T09:51:34;102259.63;;;22.69;100.00
44765;BME280;30484;52.382;5.260;2023-05-08T09:54:17;102262.59;;;23.00;100.00
44765;BME280;30484;52.382;5.260;2023-05-08T09:56:47;102267.81;;;22.91;100.00
44765;BME280;30484;52.382;5.260;2023-05-08T09:59:27;102264.09;;;23.04;100.00
44765;BME280;30484;52.382;5.260;2023-05-08T10:02:11;102259.41;;;22.83;100.00
44765;BME280;30484;52.382;5.260;2023-05-08T10:04:43;102270.53;;;22.91;100.00
44765;BME280;30484;52.382;5.260;2023-05-08T10:07:16;102273.75;;;22.74;100.00
44765;BME280;30484;52.382;5.260;2023-05-08T10:10:03;102265.34;;;23.11;100.00
44765;BME280;30484;52.382;5.260;2023-05-08T10:12:42;102260.38;;;22.82;100.00
44765;BME280;30484;52.382;5.260;2023-05-08T10:15:14;102262.47;;;23.35;100.00
44765;BME280;30484;52.382;5.260;2023-05-08T10:17:52;102258.19;;;23.65;100.00
44765;BME280;30484;52.382;5.260;2023-05-08T10:20:32;102252.94;;;23.41;100.00
44765;BME280;30484;52.382;5.260;2023-05-08T10:23:15;102249.38;;;23.73;100.00
44765;BME280;30484;52.382;5.260;2023-05-08T10:25:54;102245.22;;;23.90;100.00
44765;BME280;30484;52.382;5.260;2023-05-08T10:28:35;102246.00;;;24.13;100.00
44765;BME280;30484;52.382;5.260;2023-05-08T10:31:12;102248.81;;;24.02;100.00
44765;BME280;30484;52.382;5.260;2023-05-08T10:33:50;102249.06;;;24.20;100.00
44765;BME280;30484;52.382;5.260;2023-05-08T10:36:24;102245.16;;;23.80;100.00
44765;BME280;30484;52.382;5.260;2023-05-08T10:38:59;102246.25;;;24.52;100.00
44765;BME280;30484;52.382;5.260;2023-05-08T10:41:35;102255.00;;;24.25;100.00
44765;BME280;30484;52.382;5.260;2023-05-08T10:44:10;102247.81;;;24.66;100.00
44765;BME280;30484;52.382;5.260;2023-05-08T10:46:52;102249.81;;;24.22;100.00
44765;BME280;30484;52.382;5.260;2023-05-08T10:49:33;102244.78;;;24.48;100.00
44765;BME280;30484;52.382;5.260;2023-05-08T10:52:15;102254.75;;;24.70;100.00
44765;BME280;30484;52.382;5.260;2023-05-08T10:55:13;102248.72;;;24.55;100.00
44765;BME280;30484;52.382;5.260;2023-05-08T10:58:10;102244.66;;;24.50;100.00
44765;BME280;30484;52.382;5.260;2023-05-08T11:01:10;102251.56;;;24.23;100.00
44765;BME280;30484;52.382;5.260;2023-05-08T11:03:48;102249.94;;;24.20;100.00
44765;BME280;30484;52.382;5.260;2023-05-08T11:06:45;102247.69;;;24.04;100.00
44765;BME280;30484;52.382;5.260;2023-05-08T11:09:44;102239.88;;;24.42;100.00
44765;BME280;30484;52.382;5.260;2023-05-08T11:12:21;102245.41;;;24.09;100.00
44765;BME280;30484;52.382;5.260;2023-05-08T11:15:03;102247.94;;;24.64;100.00
44765;BME280;30484;52.382;5.260;2023-05-08T11:17:33;102251.59;;;24.33;100.00
44765;BME280;30484;52.382;5.260;2023-05-08T11:20:15;102242.63;;;23.88;100.00
44765;BME280;30484;52.382;5.260;2023-05-08T11:23:21;102238.91;;;23.89;100.00
44765;BME280;30484;52.382;5.260;2023-05-08T11:26:05;102233.75;;;24.07;100.00
44765;BME280;30484;52.382;5.260;2023-05-08T11:28:58;102232.00;;;24.06;100.00
44765;BME280;30484;52.382;5.260;2023-05-08T11:31:57;102226.13;;;23.57;100.00
44765;BME280;30484;52.382;5.260;2023-05-08T11:34:50;102229.16;;;24.29;100.00
44765;BME280;30484;52.382;5.260;2023-05-08T11:37:24;102232.34;;;24.13;100.00
44765;BME280;30484;52.382;5.260;2023-05-08T11:44:20;102223.63;;;24.61;100.00
44765;BME280;30484;52.382;5.260;2023-05-08T11:47:44;102223.00;;;24.37;100.00
44765;BME280;30484;52.382;5.260;2023-05-08T11:50:37;102211.44;;;24.44;100.00
44765;BME280;30484;52.382;5.260;2023-05-08T11:53:43;102215.06;;;24.76;100.00
44765;BME280;30484;52.382;5.260;2023-05-08T11:56:34;102203.38;;;25.05;100.00
44765;BME280;30484;52.382;5.260;2023-05-08T11:59:33;102198.75;;;25.05;100.00
44765;BME280;30484;52.382;5.260;2023-05-08T12:02:19;102206.13;;;25.14;100.00
44765;BME280;30484;52.382;5.260;2023-05-08T12:05:15;102198.63;;;24.45;100.00
44765;BME280;30484;52.382;5.260;2023-05-08T12:08:01;102204.56;;;24.81;100.00
44765;BME280;30484;52.382;5.260;2023-05-08T12:10:55;102204.50;;;25.02;100.00
44765;BME280;30484;52.382;5.260;2023-05-08T12:13:59;102218.78;;;25.06;100.00
44765;BME280;30484;52.382;5.260;2023-05-08T12:16:42;102212.00;;;25.60;100.00
44765;BME280;30484;52.382;5.260;2023-05-08T12:19:33;102207.22;;;25.33;100.00
44765;BME280;30484;52.382;5.260;2023-05-08T12:22:11;102200.66;;;24.74;100.00
44765;BME280;30484;52.382;5.260;2023-05-08T12:25:13;102190.25;;;25.59;100.00
44765;BME280;30484;52.382;5.260;2023-05-08T12:28:07;102182.75;;;26.10;100.00
44765;BME280;30484;52.382;5.260;2023-05-08T12:30:50;102183.91;;;26.17;100.00
44765;BME280;30484;52.382;5.260;2023-05-08T12:33:24;102186.63;;;26.64;100.00
44765;BME280;30484;52.382;5.260;2023-05-08T12:35:55;102177.28;;;26.10;100.00
44765;BME280;30484;52.382;5.260;2023-05-08T12:38:30;102185.88;;;26.25;100.00
44765;BME280;30484;52.382;5.260;2023-05-08T12:41:05;102185.19;;;26.70;100.00
44765;BME280;30484;52.382;5.260;2023-05-08T12:43:37;102182.09;;;26.83;100.00
44765;BME280;30484;52.382;5.260;2023-05-08T12:46:11;102175.34;;;27.05;100.00
44765;BME280;30484;52.382;5.260;2023-05-08T12:48:45;102168.66;;;27.08;100.00
44765;BME280;30484;52.382;5.260;2023-05-08T12:51:19;102175.84;;;26.91;100.00
44765;BME280;30484;52.382;5.260;2023-05-08T12:53:55;102163.97;;;26.25;100.00
44765;BME280;30484;52.382;5.260;2023-05-08T12:56:28;102166.56;;;26.16;100.00
44765;BME280;30484;52.382;5.260;2023-05-08T12:58:59;102165.13;;;26.97;100.00
44765;BME280;30484;52.382;5.260;2023-05-08T13:01:36;102159.75;;;27.06;100.00
44765;BME280;30484;52.382;5.260;2023-05-08T13:04:08;102158.91;;;27.59;100.00
44765;BME280;30484;52.382;5.260;2023-05-08T13:06:42;102157.69;;;28.16;100.00
44765;BME280;30484;52.382;5.260;2023-05-08T13:09:24;102151.56;;;28.56;100.00
44765;BME280;30484;52.382;5.260;2023-05-08T13:11:58;102157.84;;;28.14;100.00
44765;BME280;30484;52.382;5.260;2023-05-08T13:14:29;102152.19;;;28.16;100.00
44765;BME280;30484;52.382;5.260;2023-05-08T13:16:58;102144.53;;;27.83;100.00
44765;BME280;30484;52.382;5.260;2023-05-08T13:19:30;102147.88;;;28.39;100.00
44765;BME280;30484;52.382;5.260;2023-05-08T13:22:00;102160.66;;;27.60;100.00
44765;BME280;30484;52.382;5.260;2023-05-08T13:24:33;102153.44;;;27.77;100.00
44765;BME280;30484;52.382;5.260;2023-05-08T13:27:13;102156.34;;;27.58;100.00
44765;BME280;30484;52.382;5.260;2023-05-08T13:29:42;102153.53;;;27.03;100.00
44765;BME280;30484;52.382;5.260;2023-05-08T13:32:12;102151.81;;;27.48;100.00
44765;BME280;30484;52.382;5.260;2023-05-08T13:34:58;102143.50;;;26.94;100.00
44765;BME280;30484;52.382;5.260;2023-05-08T13:37:29;102141.13;;;26.44;100.00
44765;BME280;30484;52.382;5.260;2023-05-08T13:40:08;102137.72;;;27.33;100.00